sensor_id;sensor_type;location;lat;lon;timestamp;P1;P2;P0
42510;PMS7003;28141;51.120;17.114;2023-08-31T00:00:18;8;1;0
42510;PMS7003;28141;51.120;17.114;2023-08-31T00:03:59;9;2;1
42510;PMS7003;28141;51.120;17.114;2023-08-31T00:07:13;7;1;1
42510;PMS7003;28141;51.120;17.114;2023-08-31T00:10:27;8;2;1
42510;PMS7003;28141;51.120;17.114;2023-08-31T00:13:42;10;3;2
42510;PMS7003;28141;51.120;17.114;2023-08-31T00:17:22;9;2;1
42510;PMS7003;28141;51.120;17.114;2023-08-31T00:20:36;8;2;1
42510;PMS7003;28141;51.120;17.114;2023-08-31T00:23:50;9;2;1
42510;PMS7003;28141;51.120;17.114;2023-08-31T00:27:04;8;2;1
42510;PMS7003;28141;51.120;17.114;2023-08-31T00:30:46;8;1;0
42510;PMS7003;28141;51.120;17.114;2023-08-31T00:34:01;9;2;1
42510;PMS7003;28141;51.120;17.114;2023-08-31T00:37:17;10;2;1
42510;PMS7003;28141;51.120;17.114;2023-08-31T00:40:37;8;2;1
42510;PMS7003;28141;51.120;17.114;2023-08-31T00:44:23;8;1;1
42510;PMS7003;28141;51.120;17.114;2023-08-31T00:47:37;8;1;1
42510;PMS7003;28141;51.120;17.114;2023-08-31T00:50:51;8;1;1
42510;PMS7003;28141;51.120;17.114;2023-08-31T00:54:06;9;3;1
42510;PMS7003;28141;51.120;17.114;2023-08-31T00:57:47;10;3;2
42510;PMS7003;28141;51.120;17.114;2023-08-31T01:01:04;9;2;1
42510;PMS7003;28141;51.120;17.114;2023-08-31T01:04:30;9;2;1
42510;PMS7003;28141;51.120;17.114;2023-08-31T01:15:11;8;1;0
42510;PMS7003;28141;51.120;17.114;2023-08-31T01:18:52;9;3;1
42510;PMS7003;28141;51.120;17.114;2023-08-31T01:22:09;9;2;1
42510;PMS7003;28141;51.120;17.114;2023-08-31T01:25:30;9;3;2
42510;PMS7003;28141;51.120;17.114;2023-08-31T01:28:46;8;2;1
42510;PMS7003;28141;51.120;17.114;2023-08-31T01:32:27;10;3;1
42510;PMS7003;28141;51.120;17.114;2023-08-31T01:35:46;8;1;1
42510;PMS7003;28141;51.120;17.114;2023-08-31T01:42:55;10;2;1
42510;PMS7003;28141;51.120;17.114;2023-08-31T01:46:10;9;1;1
42510;PMS7003;28141;51.120;17.114;2023-08-31T01:49:24;8;2;2
42510;PMS7003;28141;51.120;17.114;2023-08-31T01:52:39;10;3;1
42510;PMS7003;28141;51.120;17.114;2023-08-31T01:56:19;9;2;2
42510;PMS7003;28141;51.120;17.114;2023-08-31T01:59:34;10;2;1
42510;PMS7003;28141;51.120;17.114;2023-08-31T02:02:48;9;1;1
42510;PMS7003;28141;51.120;17.114;2023-08-31T02:06:02;9;2;1
42510;PMS7003;28141;51.120;17.114;2023-08-31T02:09:43;9;2;2
42510;PMS7003;28141;51.120;17.114;2023-08-31T02:12:57;10;3;1
42510;PMS7003;28141;51.120;17.114;2023-08-31T02:16:11;9;3;1
42510;PMS7003;28141;51.120;17.114;2023-08-31T02:19:25;8;1;1
42510;PMS7003;28141;51.120;17.114;2023-08-31T02:23:06;9;2;1
42510;PMS7003;28141;51.120;17.114;2023-08-31T02:26:20;9;2;1
42510;PMS7003;28141;51.120;17.114;2023-08-31T02:29:35;8;1;1
42510;PMS7003;28141;51.120;17.114;2023-08-31T02:32:49;8;1;1
42510;PMS7003;28141;51.120;17.114;2023-08-31T02:36:29;8;2;1
42510;PMS7003;28141;51.120;17.114;2023-08-31T02:39:43;8;2;2
42510;PMS7003;28141;51.120;17.114;2023-08-31T02:42:57;9;2;1
42510;PMS7003;28141;51.120;17.114;2023-08-31T02:46:11;9;2;1
42510;PMS7003;28141;51.120;17.114;2023-08-31T02:49:25;8;2;1
42510;PMS7003;28141;51.120;17.114;2023-08-31T02:53:08;10;2;1
42510;PMS7003;28141;51.120;17.114;2023-08-31T02:56:21;8;1;1
42510;PMS7003;28141;51.120;17.114;2023-08-31T02:59:35;8;1;1
42510;PMS7003;28141;51.120;17.114;2023-08-31T03:02:49;9;2;2
42510;PMS7003;28141;51.120;17.114;2023-08-31T03:06:07;8;2;1
42510;PMS7003;28141;51.120;17.114;2023-08-31T03:09:48;8;2;1
42510;PMS7003;28141;51.120;17.114;2023-08-31T03:13:03;8;1;1
42510;PMS7003;28141;51.120;17.114;2023-08-31T03:16:18;9;3;1
42510;PMS7003;28141;51.120;17.114;2023-08-31T03:19:32;9;3;2
42510;PMS7003;28141;51.120;17.114;2023-08-31T03:23:12;10;2;2
42510;PMS7003;28141;51.120;17.114;2023-08-31T03:26:26;9;2;1
42510;PMS7003;28141;51.120;17.114;2023-08-31T03:29:40;9;2;1
42510;PMS7003;28141;51.120;17.114;2023-08-31T03:32:53;9;2;1
42510;PMS7003;28141;51.120;17.114;2023-08-31T03:36:34;9;3;2
42510;PMS7003;28141;51.120;17.114;2023-08-31T03:39:49;10;3;1
42510;PMS7003;28141;51.120;17.114;2023-08-31T03:43:03;9;3;2
42510;PMS7003;28141;51.120;17.114;2023-08-31T03:46:17;9;2;1
42510;PMS7003;28141;51.120;17.114;2023-08-31T03:49:57;9;2;2
42510;PMS7003;28141;51.120;17.114;2023-08-31T03:53:11;11;3;1
42510;PMS7003;28141;51.120;17.114;2023-08-31T03:56:25;10;3;2
42510;PMS7003;28141;51.120;17.114;2023-08-31T03:59:39;10;3;2
42510;PMS7003;28141;51.120;17.114;2023-08-31T04:02:53;10;3;2
42510;PMS7003;28141;51.120;17.114;2023-08-31T04:06:07;9;2;1
42510;PMS7003;28141;51.120;17.114;2023-08-31T04:09:48;9;3;1
42510;PMS7003;28141;51.120;17.114;2023-08-31T04:13:02;10;3;2
42510;PMS7003;28141;51.120;17.114;2023-08-31T04:16:16;13;4;2
42510;PMS7003;28141;51.120;17.114;2023-08-31T04:19:30;9;3;2
42510;PMS7003;28141;51.120;17.114;2023-08-31T04:23:10;9;2;1
42510;PMS7003;28141;51.120;17.114;2023-08-31T04:26:24;10;3;2
42510;PMS7003;28141;51.120;17.114;2023-08-31T04:29:37;10;4;2
42510;PMS7003;28141;51.120;17.114;2023-08-31T04:32:51;12;6;2
42510;PMS7003;28141;51.120;17.114;2023-08-31T04:36:31;10;3;1
42510;PMS7003;28141;51.120;17.114;2023-08-31T04:39:45;9;3;2
42510;PMS7003;28141;51.120;17.114;2023-08-31T04:42:59;10;4;2
42510;PMS7003;28141;51.120;17.114;2023-08-31T04:46:13;11;4;2
42510;PMS7003;28141;51.120;17.114;2023-08-31T04:49:54;11;4;3
42510;PMS7003;28141;51.120;17.114;2023-08-31T04:53:10;10;3;2
42510;PMS7003;28141;51.120;17.114;2023-08-31T04:56:24;11;4;2
42510;PMS7003;28141;51.120;17.114;2023-08-31T04:59:37;9;3;2
42510;PMS7003;28141;51.120;17.114;2023-08-31T05:03:20;10;4;2
42510;PMS7003;28141;51.120;17.114;2023-08-31T05:06:34;10;3;2
42510;PMS7003;28141;51.120;17.114;2023-08-31T05:09:48;10;3;2
42510;PMS7003;28141;51.120;17.114;2023-08-31T05:13:03;10;3;2
42510;PMS7003;28141;51.120;17.114;2023-08-31T05:16:43;12;5;3
42510;PMS7003;28141;51.120;17.114;2023-08-31T05:19:58;11;5;3
42510;PMS7003;28141;51.120;17.114;2023-08-31T05:23:12;12;5;3
42510;PMS7003;28141;51.120;17.114;2023-08-31T05:26:26;11;4;3
42510;PMS7003;28141;51.120;17.114;2023-08-31T05:30:07;12;4;3
42510;PMS7003;28141;51.120;17.114;2023-08-31T05:33:22;11;4;3
42510;PMS7003;28141;51.120;17.114;2023-08-31T05:36:38;10;4;2
42510;PMS7003;28141;51.120;17.114;2023-08-31T05:39:52;11;4;2
42510;PMS7003;28141;51.120;17.114;2023-08-31T05:43:33;11;4;3
42510;PMS7003;28141;51.120;17.114;2023-08-31T05:46:53;12;5;3
42510;PMS7003;28141;51.120;17.114;2023-08-31T05:50:07;13;3;2
42510;PMS7003;28141;51.120;17.114;2023-08-31T05:53:21;10;3;3
42510;PMS7003;28141;51.120;17.114;2023-08-31T05:57:02;12;4;3
42510;PMS7003;28141;51.120;17.114;2023-08-31T06:00:19;13;6;3
42510;PMS7003;28141;51.120;17.114;2023-08-31T06:03:33;11;4;3
42510;PMS7003;28141;51.120;17.114;2023-08-31T06:06:47;11;4;3
42510;PMS7003;28141;51.120;17.114;2023-08-31T06:10:27;10;4;3
42510;PMS7003;28141;51.120;17.114;2023-08-31T06:13:42;10;4;2
42510;PMS7003;28141;51.120;17.114;2023-08-31T06:16:56;11;4;3
42510;PMS7003;28141;51.120;17.114;2023-08-31T06:20:10;10;3;3
42510;PMS7003;28141;51.120;17.114;2023-08-31T06:23:24;11;4;3
42510;PMS7003;28141;51.120;17.114;2023-08-31T06:26:38;11;4;3
42510;PMS7003;28141;51.120;17.114;2023-08-31T06:30:19;11;4;3
42510;PMS7003;28141;51.120;17.114;2023-08-31T06:33:33;10;3;3
42510;PMS7003;28141;51.120;17.114;2023-08-31T06:36:47;12;4;4
42510;PMS7003;28141;51.120;17.114;2023-08-31T06:40:00;10;3;3
42510;PMS7003;28141;51.120;17.114;2023-08-31T06:43:40;12;5;3
42510;PMS7003;28141;51.120;17.114;2023-08-31T06:46:55;12;5;4
42510;PMS7003;28141;51.120;17.114;2023-08-31T06:50:09;12;5;3
42510;PMS7003;28141;51.120;17.114;2023-08-31T06:53:23;12;5;3
42510;PMS7003;28141;51.120;17.114;2023-08-31T06:57:04;12;5;4
42510;PMS7003;28141;51.120;17.114;2023-08-31T07:00:18;14;6;3
42510;PMS7003;28141;51.120;17.114;2023-08-31T07:03:32;12;5;4
42510;PMS7003;28141;51.120;17.114;2023-08-31T07:06:47;12;6;4
42510;PMS7003;28141;51.120;17.114;2023-08-31T07:10:27;13;6;4
42510;PMS7003;28141;51.120;17.114;2023-08-31T07:13:41;11;4;3
42510;PMS7003;28141;51.120;17.114;2023-08-31T07:16:55;11;5;4
42510;PMS7003;28141;51.120;17.114;2023-08-31T07:20:09;13;6;3
42510;PMS7003;28141;51.120;17.114;2023-08-31T07:23:50;12;6;3
42510;PMS7003;28141;51.120;17.114;2023-08-31T07:27:05;13;6;4
42510;PMS7003;28141;51.120;17.114;2023-08-31T07:30:19;12;6;4
42510;PMS7003;28141;51.120;17.114;2023-08-31T07:33:33;13;6;4
42510;PMS7003;28141;51.120;17.114;2023-08-31T07:37:15;12;5;3
42510;PMS7003;28141;51.120;17.114;2023-08-31T07:40:29;12;5;4
42510;PMS7003;28141;51.120;17.114;2023-08-31T07:43:43;14;7;5
42510;PMS7003;28141;51.120;17.114;2023-08-31T07:46:56;15;8;6
42510;PMS7003;28141;51.120;17.114;2023-08-31T07:50:37;15;9;6
42510;PMS7003;28141;51.120;17.114;2023-08-31T07:53:53;15;8;6
42510;PMS7003;28141;51.120;17.114;2023-08-31T07:57:07;14;7;5
42510;PMS7003;28141;51.120;17.114;2023-08-31T08:00:21;15;8;5
42510;PMS7003;28141;51.120;17.114;2023-08-31T08:04:01;15;8;5
42510;PMS7003;28141;51.120;17.114;2023-08-31T08:07:15;14;7;4
42510;PMS7003;28141;51.120;17.114;2023-08-31T08:10:29;13;6;4
42510;PMS7003;28141;51.120;17.114;2023-08-31T08:13:43;12;6;4
42510;PMS7003;28141;51.120;17.114;2023-08-31T08:17:23;13;7;5
42510;PMS7003;28141;51.120;17.114;2023-08-31T08:20:38;11;5;4
42510;PMS7003;28141;51.120;17.114;2023-08-31T08:23:52;14;6;4
42510;PMS7003;28141;51.120;17.114;2023-08-31T08:27:06;15;8;5
42510;PMS7003;28141;51.120;17.114;2023-08-31T08:30:46;13;6;5
42510;PMS7003;28141;51.120;17.114;2023-08-31T08:34:00;13;6;4
42510;PMS7003;28141;51.120;17.114;2023-08-31T08:37:16;15;7;5
42510;PMS7003;28141;51.120;17.114;2023-08-31T08:40:31;14;6;4
42510;PMS7003;28141;51.120;17.114;2023-08-31T08:44:12;14;7;5
42510;PMS7003;28141;51.120;17.114;2023-08-31T08:47:34;16;8;6
42510;PMS7003;28141;51.120;17.114;2023-08-31T08:50:49;13;5;4
42510;PMS7003;28141;51.120;17.114;2023-08-31T08:54:04;14;7;5
42510;PMS7003;28141;51.120;17.114;2023-08-31T08:57:44;14;8;6
42510;PMS7003;28141;51.120;17.114;2023-08-31T09:00:59;13;6;5
42510;PMS7003;28141;51.120;17.114;2023-08-31T09:04:12;14;6;5
42510;PMS7003;28141;51.120;17.114;2023-08-31T09:07:29;13;7;5
42510;PMS7003;28141;51.120;17.114;2023-08-31T09:11:09;15;6;5
42510;PMS7003;28141;51.120;17.114;2023-08-31T09:14:38;13;7;4
42510;PMS7003;28141;51.120;17.114;2023-08-31T09:17:51;12;5;3
42510;PMS7003;28141;51.120;17.114;2023-08-31T09:21:35;14;6;4
42510;PMS7003;28141;51.120;17.114;2023-08-31T09:24:49;13;6;4
42510;PMS7003;28141;51.120;17.114;2023-08-31T09:28:04;14;7;4
42510;PMS7003;28141;51.120;17.114;2023-08-31T09:31:19;11;4;3
42510;PMS7003;28141;51.120;17.114;2023-08-31T09:35:00;12;5;3
42510;PMS7003;28141;51.120;17.114;2023-08-31T09:38:16;11;5;3
42510;PMS7003;28141;51.120;17.114;2023-08-31T09:41:31;11;4;3
42510;PMS7003;28141;51.120;17.114;2023-08-31T09:44:49;11;5;3
42510;PMS7003;28141;51.120;17.114;2023-08-31T09:48:29;11;4;2
42510;PMS7003;28141;51.120;17.114;2023-08-31T09:51:44;11;4;2
42510;PMS7003;28141;51.120;17.114;2023-08-31T09:55:01;10;4;3
42510;PMS7003;28141;51.120;17.114;2023-08-31T09:58:18;10;3;3
42510;PMS7003;28141;51.120;17.114;2023-08-31T10:01:59;9;2;1
42510;PMS7003;28141;51.120;17.114;2023-08-31T10:05:16;10;3;2
42510;PMS7003;28141;51.120;17.114;2023-08-31T10:08:30;12;4;2
42510;PMS7003;28141;51.120;17.114;2023-08-31T10:11:44;10;3;2
42510;PMS7003;28141;51.120;17.114;2023-08-31T10:15:26;9;3;2
42510;PMS7003;28141;51.120;17.114;2023-08-31T10:18:52;10;3;2
42510;PMS7003;28141;51.120;17.114;2023-08-31T10:22:08;11;4;3
42510;PMS7003;28141;51.120;17.114;2023-08-31T10:32:43;13;4;3
42510;PMS7003;28141;51.120;17.114;2023-08-31T10:35:57;10;4;3
42510;PMS7003;28141;51.120;17.114;2023-08-31T10:39:38;11;4;2
42510;PMS7003;28141;51.120;17.114;2023-08-31T10:43:13;11;4;2
42510;PMS7003;28141;51.120;17.114;2023-08-31T10:53:32;9;2;2
42510;PMS7003;28141;51.120;17.114;2023-08-31T11:00:52;10;4;3
42510;PMS7003;28141;51.120;17.114;2023-08-31T11:04:09;10;3;2
42510;PMS7003;28141;51.120;17.114;2023-08-31T11:07:27;11;4;3
42510;PMS7003;28141;51.120;17.114;2023-08-31T11:10:45;10;4;3
42510;PMS7003;28141;51.120;17.114;2023-08-31T11:14:25;9;3;2
42510;PMS7003;28141;51.120;17.114;2023-08-31T11:17:39;11;4;3
42510;PMS7003;28141;51.120;17.114;2023-08-31T11:20:54;11;3;2
42510;PMS7003;28141;51.120;17.114;2023-08-31T11:24:10;10;3;2
42510;PMS7003;28141;51.120;17.114;2023-08-31T11:27:57;10;3;2
42510;PMS7003;28141;51.120;17.114;2023-08-31T11:31:12;10;3;2
42510;PMS7003;28141;51.120;17.114;2023-08-31T11:34:26;10;3;2
42510;PMS7003;28141;51.120;17.114;2023-08-31T11:37:41;10;3;2
42510;PMS7003;28141;51.120;17.114;2023-08-31T11:41:22;10;3;2
42510;PMS7003;28141;51.120;17.114;2023-08-31T11:44:37;12;5;2
42510;PMS7003;28141;51.120;17.114;2023-08-31T11:47:52;10;3;2
42510;PMS7003;28141;51.120;17.114;2023-08-31T11:51:08;9;2;2
42510;PMS7003;28141;51.120;17.114;2023-08-31T11:54:51;10;3;2
42510;PMS7003;28141;51.120;17.114;2023-08-31T11:58:07;10;4;3
42510;PMS7003;28141;51.120;17.114;2023-08-31T12:01:21;9;3;2
42510;PMS7003;28141;51.120;17.114;2023-08-31T12:08:25;11;4;2
42510;PMS7003;28141;51.120;17.114;2023-08-31T12:11:39;10;3;2
42510;PMS7003;28141;51.120;17.114;2023-08-31T12:14:53;11;3;2
42510;PMS7003;28141;51.120;17.114;2023-08-31T12:18:13;10;4;3
42510;PMS7003;28141;51.120;17.114;2023-08-31T12:21:54;10;3;2
42510;PMS7003;28141;51.120;17.114;2023-08-31T12:25:09;11;4;2
42510;PMS7003;28141;51.120;17.114;2023-08-31T12:28:23;11;4;2
42510;PMS7003;28141;51.120;17.114;2023-08-31T12:31:37;9;3;2
42510;PMS7003;28141;51.120;17.114;2023-08-31T12:35:18;10;3;2
42510;PMS7003;28141;51.120;17.114;2023-08-31T12:38:32;9;3;2
42510;PMS7003;28141;51.120;17.114;2023-08-31T12:41:46;10;4;3
42510;PMS7003;28141;51.120;17.114;2023-08-31T12:45:01;10;3;2
42510;PMS7003;28141;51.120;17.114;2023-08-31T12:48:44;11;3;3
42510;PMS7003;28141;51.120;17.114;2023-08-31T12:51:58;9;3;2
42510;PMS7003;28141;51.120;17.114;2023-08-31T12:55:13;9;3;2
42510;PMS7003;28141;51.120;17.114;2023-08-31T12:58:27;9;3;2
42510;PMS7003;28141;51.120;17.114;2023-08-31T13:02:07;9;3;2
42510;PMS7003;28141;51.120;17.114;2023-08-31T13:05:24;10;3;3
42510;PMS7003;28141;51.120;17.114;2023-08-31T13:08:42;10;3;2
42510;PMS7003;28141;51.120;17.114;2023-08-31T13:11:57;9;2;2
42510;PMS7003;28141;51.120;17.114;2023-08-31T13:15:37;11;4;1
42510;PMS7003;28141;51.120;17.114;2023-08-31T13:18:51;9;2;2
42510;PMS7003;28141;51.120;17.114;2023-08-31T13:22:05;9;3;2
42510;PMS7003;28141;51.120;17.114;2023-08-31T13:25:19;10;3;2
42510;PMS7003;28141;51.120;17.114;2023-08-31T13:28:59;9;3;2
42510;PMS7003;28141;51.120;17.114;2023-08-31T13:32:13;10;3;2
42510;PMS7003;28141;51.120;17.114;2023-08-31T13:35:28;9;2;2
42510;PMS7003;28141;51.120;17.114;2023-08-31T13:38:42;10;3;2
42510;PMS7003;28141;51.120;17.114;2023-08-31T13:42:22;10;3;2
42510;PMS7003;28141;51.120;17.114;2023-08-31T13:45:36;10;3;2
42510;PMS7003;28141;51.120;17.114;2023-08-31T13:48:50;10;3;2
42510;PMS7003;28141;51.120;17.114;2023-08-31T13:52:04;10;3;2
42510;PMS7003;28141;51.120;17.114;2023-08-31T13:55:48;9;2;1
42510;PMS7003;28141;51.120;17.114;2023-08-31T14:00:22;11;3;2
42510;PMS7003;28141;51.120;17.114;2023-08-31T14:03:35;9;2;2
42510;PMS7003;28141;51.120;17.114;2023-08-31T14:06:50;9;2;2
42510;PMS7003;28141;51.120;17.114;2023-08-31T14:10:04;9;2;2
42510;PMS7003;28141;51.120;17.114;2023-08-31T14:13:48;9;3;2
42510;PMS7003;28141;51.120;17.114;2023-08-31T14:17:02;9;2;2
42510;PMS7003;28141;51.120;17.114;2023-08-31T14:20:16;9;2;1
42510;PMS7003;28141;51.120;17.114;2023-08-31T14:23:30;9;2;1
42510;PMS7003;28141;51.120;17.114;2023-08-31T14:27:13;9;2;1
42510;PMS7003;28141;51.120;17.114;2023-08-31T14:30:27;8;2;1
42510;PMS7003;28141;51.120;17.114;2023-08-31T14:33:41;8;2;1
42510;PMS7003;28141;51.120;17.114;2023-08-31T14:36:55;8;2;1
42510;PMS7003;28141;51.120;17.114;2023-08-31T14:40:41;8;2;1
42510;PMS7003;28141;51.120;17.114;2023-08-31T14:43:55;8;2;1
42510;PMS7003;28141;51.120;17.114;2023-08-31T14:47:09;9;2;2
42510;PMS7003;28141;51.120;17.114;2023-08-31T14:50:23;8;2;1
42510;PMS7003;28141;51.120;17.114;2023-08-31T14:54:02;8;2;1
42510;PMS7003;28141;51.120;17.114;2023-08-31T14:57:16;9;2;1
42510;PMS7003;28141;51.120;17.114;2023-08-31T15:00:30;8;1;1
42510;PMS7003;28141;51.120;17.114;2023-08-31T15:03:44;9;2;1
42510;PMS7003;28141;51.120;17.114;2023-08-31T15:07:23;7;1;0
42510;PMS7003;28141;51.120;17.114;2023-08-31T15:10:38;7;2;1
42510;PMS7003;28141;51.120;17.114;2023-08-31T15:13:52;9;3;1
42510;PMS7003;28141;51.120;17.114;2023-08-31T15:17:07;8;2;1
42510;PMS7003;28141;51.120;17.114;2023-08-31T15:20:46;7;1;1
42510;PMS7003;28141;51.120;17.114;2023-08-31T15:24:01;8;2;1
42510;PMS7003;28141;51.120;17.114;2023-08-31T15:27:15;8;2;1
42510;PMS7003;28141;51.120;17.114;2023-08-31T15:30:29;7;1;1
42510;PMS7003;28141;51.120;17.114;2023-08-31T15:34:11;9;2;1
42510;PMS7003;28141;51.120;17.114;2023-08-31T15:37:25;8;2;1
42510;PMS7003;28141;51.120;17.114;2023-08-31T15:40:45;8;2;1
42510;PMS7003;28141;51.120;17.114;2023-08-31T15:44:27;8;2;1
42510;PMS7003;28141;51.120;17.114;2023-08-31T15:47:41;9;2;1
42510;PMS7003;28141;51.120;17.114;2023-08-31T15:50:55;8;2;1
42510;PMS7003;28141;51.120;17.114;2023-08-31T15:54:10;9;1;1
42510;PMS7003;28141;51.120;17.114;2023-08-31T15:57:49;8;1;1
42510;PMS7003;28141;51.120;17.114;2023-08-31T16:01:04;7;1;1
42510;PMS7003;28141;51.120;17.114;2023-08-31T16:04:24;8;2;1
42510;PMS7003;28141;51.120;17.114;2023-08-31T16:08:06;7;1;1
42510;PMS7003;28141;51.120;17.114;2023-08-31T16:11:20;8;1;1
42510;PMS7003;28141;51.120;17.114;2023-08-31T16:14:37;8;2;1
42510;PMS7003;28141;51.120;17.114;2023-08-31T16:17:51;8;2;1
42510;PMS7003;28141;51.120;17.114;2023-08-31T16:21:29;7;1;1
42510;PMS7003;28141;51.120;17.114;2023-08-31T16:24:44;7;1;1
42510;PMS7003;28141;51.120;17.114;2023-08-31T16:27:59;8;2;1
42510;PMS7003;28141;51.120;17.114;2023-08-31T16:31:13;8;2;1
42510;PMS7003;28141;51.120;17.114;2023-08-31T16:34:28;8;1;1
42510;PMS7003;28141;51.120;17.114;2023-08-31T16:38:08;8;2;1
42510;PMS7003;28141;51.120;17.114;2023-08-31T16:41:22;7;2;1
42510;PMS7003;28141;51.120;17.114;2023-08-31T16:44:37;7;2;1
42510;PMS7003;28141;51.120;17.114;2023-08-31T16:47:51;8;1;1
42510;PMS7003;28141;51.120;17.114;2023-08-31T16:51:30;7;1;0
42510;PMS7003;28141;51.120;17.114;2023-08-31T16:54:44;8;2;1
42510;PMS7003;28141;51.120;17.114;2023-08-31T16:57:58;7;1;1
42510;PMS7003;28141;51.120;17.114;2023-08-31T17:01:12;8;2;1
42510;PMS7003;28141;51.120;17.114;2023-08-31T17:04:51;8;2;2
42510;PMS7003;28141;51.120;17.114;2023-08-31T17:08:05;7;1;1
42510;PMS7003;28141;51.120;17.114;2023-08-31T17:11:19;7;1;0
42510;PMS7003;28141;51.120;17.114;2023-08-31T17:14:33;8;1;0
42510;PMS7003;28141;51.120;17.114;2023-08-31T17:18:12;8;2;1
42510;PMS7003;28141;51.120;17.114;2023-08-31T17:21:26;7;1;1
42510;PMS7003;28141;51.120;17.114;2023-08-31T17:24:39;8;2;1
42510;PMS7003;28141;51.120;17.114;2023-08-31T17:27:53;8;2;1
42510;PMS7003;28141;51.120;17.114;2023-08-31T17:31:32;8;2;1
42510;PMS7003;28141;51.120;17.114;2023-08-31T17:34:46;8;1;1
42510;PMS7003;28141;51.120;17.114;2023-08-31T17:38:00;8;1;0
42510;PMS7003;28141;51.120;17.114;2023-08-31T17:41:14;7;0;0
42510;PMS7003;28141;51.120;17.114;2023-08-31T17:44:54;7;1;1
42510;PMS7003;28141;51.120;17.114;2023-08-31T17:48:08;8;1;1
42510;PMS7003;28141;51.120;17.114;2023-08-31T17:51:22;9;2;1
42510;PMS7003;28141;51.120;17.114;2023-08-31T17:54:36;7;1;1
42510;PMS7003;28141;51.120;17.114;2023-08-31T17:58:15;7;1;0
42510;PMS7003;28141;51.120;17.114;2023-08-31T18:01:29;7;1;1
42510;PMS7003;28141;51.120;17.114;2023-08-31T18:04:43;8;2;1
42510;PMS7003;28141;51.120;17.114;2023-08-31T18:07:57;9;2;1
42510;PMS7003;28141;51.120;17.114;2023-08-31T18:11:11;9;2;1
42510;PMS7003;28141;51.120;17.114;2023-08-31T18:14:54;8;2;1
42510;PMS7003;28141;51.120;17.114;2023-08-31T18:18:08;8;1;1
42510;PMS7003;28141;51.120;17.114;2023-08-31T18:21:23;9;1;1
42510;PMS7003;28141;51.120;17.114;2023-08-31T18:24:36;8;1;1
42510;PMS7003;28141;51.120;17.114;2023-08-31T18:28:19;8;1;0
42510;PMS7003;28141;51.120;17.114;2023-08-31T18:31:33;8;2;1
42510;PMS7003;28141;51.120;17.114;2023-08-31T18:34:53;9;1;1
42510;PMS7003;28141;51.120;17.114;2023-08-31T18:38:08;8;2;1
42510;PMS7003;28141;51.120;17.114;2023-08-31T18:41:48;8;1;1
42510;PMS7003;28141;51.120;17.114;2023-08-31T18:45:02;8;2;1
42510;PMS7003;28141;51.120;17.114;2023-08-31T18:48:18;7;1;0
42510;PMS7003;28141;51.120;17.114;2023-08-31T18:51:32;8;1;1
42510;PMS7003;28141;51.120;17.114;2023-08-31T18:55:19;7;1;1
42510;PMS7003;28141;51.120;17.114;2023-08-31T18:58:36;8;1;1
42510;PMS7003;28141;51.120;17.114;2023-08-31T19:01:56;9;2;1
42510;PMS7003;28141;51.120;17.114;2023-08-31T19:05:10;9;2;1
42510;PMS7003;28141;51.120;17.114;2023-08-31T19:08:52;8;1;1
42510;PMS7003;28141;51.120;17.114;2023-08-31T19:12:07;8;2;1
42510;PMS7003;28141;51.120;17.114;2023-08-31T19:15:21;9;1;0
42510;PMS7003;28141;51.120;17.114;2023-08-31T19:18:35;9;3;2
42510;PMS7003;28141;51.120;17.114;2023-08-31T19:22:16;8;2;1
42510;PMS7003;28141;51.120;17.114;2023-08-31T19:25:31;9;2;1
42510;PMS7003;28141;51.120;17.114;2023-08-31T19:28:46;9;2;1
42510;PMS7003;28141;51.120;17.114;2023-08-31T19:32:00;10;2;1
42510;PMS7003;28141;51.120;17.114;2023-08-31T19:35:40;8;2;1
42510;PMS7003;28141;51.120;17.114;2023-08-31T19:38:54;7;1;0
42510;PMS7003;28141;51.120;17.114;2023-08-31T19:42:08;8;2;1
42510;PMS7003;28141;51.120;17.114;2023-08-31T19:45:22;8;1;0
42510;PMS7003;28141;51.120;17.114;2023-08-31T19:49:02;8;1;1
42510;PMS7003;28141;51.120;17.114;2023-08-31T19:52:16;8;1;1
42510;PMS7003;28141;51.120;17.114;2023-08-31T19:55:31;7;1;1
42510;PMS7003;28141;51.120;17.114;2023-08-31T19:58:45;8;1;0
42510;PMS7003;28141;51.120;17.114;2023-08-31T20:02:24;9;2;1
42510;PMS7003;28141;51.120;17.114;2023-08-31T20:05:38;8;2;1
42510;PMS7003;28141;51.120;17.114;2023-08-31T20:08:52;9;2;1
42510;PMS7003;28141;51.120;17.114;2023-08-31T20:12:06;8;2;1
42510;PMS7003;28141;51.120;17.114;2023-08-31T20:15:46;8;1;1
42510;PMS7003;28141;51.120;17.114;2023-08-31T20:19:00;9;2;1
42510;PMS7003;28141;51.120;17.114;2023-08-31T20:22:16;8;1;1
42510;PMS7003;28141;51.120;17.114;2023-08-31T20:25:30;7;0;0
42510;PMS7003;28141;51.120;17.114;2023-08-31T20:29:11;8;1;1
42510;PMS7003;28141;51.120;17.114;2023-08-31T20:32:30;7;2;1
42510;PMS7003;28141;51.120;17.114;2023-08-31T20:35:44;8;1;1
42510;PMS7003;28141;51.120;17.114;2023-08-31T20:38:58;9;2;1
42510;PMS7003;28141;51.120;17.114;2023-08-31T20:42:39;8;1;1
42510;PMS7003;28141;51.120;17.114;2023-08-31T20:45:53;8;1;1
42510;PMS7003;28141;51.120;17.114;2023-08-31T20:49:11;8;2;1
42510;PMS7003;28141;51.120;17.114;2023-08-31T20:52:27;10;4;2
42510;PMS7003;28141;51.120;17.114;2023-08-31T20:56:12;8;1;1
42510;PMS7003;28141;51.120;17.114;2023-08-31T20:59:27;8;2;1
42510;PMS7003;28141;51.120;17.114;2023-08-31T21:02:43;9;2;1
42510;PMS7003;28141;51.120;17.114;2023-08-31T21:05:57;8;2;1
42510;PMS7003;28141;51.120;17.114;2023-08-31T21:09:37;9;2;1
42510;PMS7003;28141;51.120;17.114;2023-08-31T21:12:52;9;2;1
42510;PMS7003;28141;51.120;17.114;2023-08-31T21:16:06;9;2;1
42510;PMS7003;28141;51.120;17.114;2023-08-31T21:19:20;8;1;1
42510;PMS7003;28141;51.120;17.114;2023-08-31T21:22:59;7;1;0
42510;PMS7003;28141;51.120;17.114;2023-08-31T21:26:13;8;1;0
42510;PMS7003;28141;51.120;17.114;2023-08-31T21:29:27;8;2;1
42510;PMS7003;28141;51.120;17.114;2023-08-31T21:32:42;8;1;0
42510;PMS7003;28141;51.120;17.114;2023-08-31T21:36:22;9;2;0
42510;PMS7003;28141;51.120;17.114;2023-08-31T21:39:36;9;2;1
42510;PMS7003;28141;51.120;17.114;2023-08-31T21:42:50;9;3;1
42510;PMS7003;28141;51.120;17.114;2023-08-31T21:46:04;9;2;1
42510;PMS7003;28141;51.120;17.114;2023-08-31T21:49:44;9;2;1
42510;PMS7003;28141;51.120;17.114;2023-08-31T21:52:58;9;2;1
42510;PMS7003;28141;51.120;17.114;2023-08-31T21:56:13;8;1;1
42510;PMS7003;28141;51.120;17.114;2023-08-31T21:59:27;8;1;1
42510;PMS7003;28141;51.120;17.114;2023-08-31T22:03:07;8;1;1
42510;PMS7003;28141;51.120;17.114;2023-08-31T22:06:21;11;3;1
42510;PMS7003;28141;51.120;17.114;2023-08-31T22:09:36;11;2;2
42510;PMS7003;28141;51.120;17.114;2023-08-31T22:12:50;8;2;1
42510;PMS7003;28141;51.120;17.114;2023-08-31T22:16:32;8;2;1
42510;PMS7003;28141;51.120;17.114;2023-08-31T22:19:45;8;2;1
42510;PMS7003;28141;51.120;17.114;2023-08-31T22:22:59;8;2;1
42510;PMS7003;28141;51.120;17.114;2023-08-31T22:26:14;8;1;1
42510;PMS7003;28141;51.120;17.114;2023-08-31T22:29:54;8;1;1
42510;PMS7003;28141;51.120;17.114;2023-08-31T22:33:07;9;2;1
42510;PMS7003;28141;51.120;17.114;2023-08-31T22:36:21;8;1;0
42510;PMS7003;28141;51.120;17.114;2023-08-31T22:39:35;9;3;2